CST,Max TemperatureF,Mean TemperatureF,Min TemperatureF,Max Dew PointF,MeanDew PointF,Min DewpointF,Max Humidity, Mean Humidity, Min Humidity, Max Sea Level PressureIn, Mean Sea Level PressureIn, Min Sea Level PressureIn, Max VisibilityMiles, Mean VisibilityMiles, Min VisibilityMiles, Max Wind SpeedMPH, Mean Wind SpeedMPH, Max Gust SpeedMPH,PrecipitationIn, CloudCover, Events, WindDirDegrees
2012-11-1,78,59,39,43,38,34,79,53,26,30.03,29.97,29.91,10,10,10,9,4,14,0.00,0,,94
2012-11-2,75,60,45,45,41,34,71,51,31,30.05,29.87,29.78,10,10,10,22,10,28,0.00,0,,86
2012-11-3,62,49,35,39,35,31,82,62,42,30.25,30.19,30.06,10,10,7,16,7,18,0.00,0,,342
2012-11-4,71,52,33,46,34,31,89,56,23,30.22,30.12,30.00,10,10,9,22,9,26,T,1,Rain,199
2012-11-5,54,46,38,39,36,33,79,67,54,30.18,30.13,30.07,10,10,10,26,12,30,0.00,4,,349
2012-11-6,66,51,36,38,29,23,85,53,20,30.16,30.11,30.07,10,10,9,29,11,36,T,1,,288
2012-11-7,63,47,31,29,26,22,66,47,27,30.23,30.13,30.01,10,10,10,15,7,17,0.00,0,,137
2012-11-8,75,59,43,44,36,28,77,54,31,30.01,29.87,29.79,10,10,10,24,9,30,0.00,0,,173
2012-11-9,80,60,40,56,48,36,83,60,36,29.80,29.71,29.63,10,10,10,24,11,35,0.00,0,,183
2012-11-10,78,63,48,56,54,43,86,68,50,29.68,29.60,29.51,10,9,2,39,20,54,0.32,3,Rain-Thunderstorm,194
2012-11-11,48,37,26,43,24,15,82,61,40,30.31,30.01,29.73,10,10,9,28,17,35,T,4,Snow,318
2012-11-12,52,37,22,21,17,13,74,48,22,30.45,30.39,30.32,10,10,10,22,7,26,0.00,0,,260
2012-11-13,58,42,25,30,25,19,78,54,30,30.42,30.36,30.28,10,10,10,20,7,23,0.00,0,,169
2012-11-14,57,42,26,30,27,21,81,57,33,30.37,30.29,30.22,10,10,10,15,6,21,0.00,0,,161
2012-11-15,59,45,31,34,31,26,82,61,39,30.43,30.31,30.20,10,10,8,12,2,14,0.00,1,,37
2012-11-16,62,45,27,36,31,24,85,60,34,30.47,30.39,30.32,10,10,8,13,5,17,0.00,0,,151
2012-11-17,63,49,34,34,31,28,76,55,34,30.31,30.23,30.15,10,10,10,28,15,36,0.00,0,,167
2012-11-18,65,56,46,38,33,28,49,43,37,30.17,30.08,30.00,10,10,10,25,16,33,0.00,0,,173
2012-11-19,70,54,37,44,39,34,92,62,31,30.16,30.09,30.01,10,10,6,20,6,28,0.00,0,,238
2012-11-20,67,51,35,36,34,31,82,56,29,30.27,30.21,30.17,10,10,10,10,5,10,0.00,0,,241
2012-11-21,75,59,42,47,42,37,82,56,29,30.17,30.04,29.84,10,10,10,31,15,37,0.00,0,,179
2012-11-22,73,55,37,50,42,28,65,48,31,30.35,29.97,29.76,10,10,10,29,14,35,0.00,0,,272
2012-11-23,43,32,21,26,17,13,68,51,33,30.62,30.51,30.38,10,10,9,26,12,31,T,0,,314
2012-11-24,59,40,20,25,20,14,77,52,26,30.42,30.11,29.86,10,10,9,26,11,33,T,0,,176
2012-11-25,58,44,30,33,27,22,72,54,36,30.06,29.95,29.88,10,10,2,16,8,21,0.00,0,,38
2012-11-26,45,33,21,26,24,15,84,65,45,30.52,30.33,30.07,10,10,8,26,12,32,0.00,1,,8
2012-11-27,47,30,13,25,19,9,88,65,42,30.51,30.38,30.25,10,10,8,21,7,29,0.00,0,,187
2012-11-28,55,38,21,30,25,16,85,65,36,30.40,30.28,30.12,10,10,8,12,4,,0.00,0,,159
2012-11-29,62,46,29,39,33,26,92,66,39,30.08,30.02,29.95,10,10,6,12,4,16,0.00,0,,191
2012-11-30,70,50,30,41,32,22,72,49,26,30.11,30.02,29.91,10,9,2,12,3,13,0.00,0,,112